sensor_id;sensor_type;location;lat;lon;timestamp;pressure;altitude;pressure_sealevel;temperature;humidity
55490;BME280;44029;52.956;4.772;2023-09-12T00:01:03;101419.50;;;25.16;100.00
55490;BME280;44029;52.956;4.772;2023-09-12T00:03:30;101419.06;;;25.05;100.00
55490;BME280;44029;52.956;4.772;2023-09-12T00:05:57;101410.78;;;25.17;100.00
55490;BME280;44029;52.956;4.772;2023-09-12T00:08:23;101412.50;;;24.92;100.00
55490;BME280;44029;52.956;4.772;2023-09-12T00:11:06;101411.06;;;25.24;100.00
55490;BME280;44029;52.956;4.772;2023-09-12T00:13:35;101403.38;;;25.04;100.00
55490;BME280;44029;52.956;4.772;2023-09-12T00:16:01;101404.97;;;24.66;100.00
55490;BME280;44029;52.956;4.772;2023-09-12T00:18:26;101410.84;;;24.91;100.00
55490;BME280;44029;52.956;4.772;2023-09-12T00:20:52;101397.66;;;24.92;100.00
55490;BME280;44029;52.956;4.772;2023-09-12T00:23:18;101398.47;;;25.01;100.00
55490;BME280;44029;52.956;4.772;2023-09-12T00:25:43;101382.13;;;25.03;100.00
55490;BME280;44029;52.956;4.772;2023-09-12T00:28:09;101382.75;;;25.08;100.00
55490;BME280;44029;52.956;4.772;2023-09-12T00:30:34;101379.81;;;25.05;100.00
55490;BME280;44029;52.956;4.772;2023-09-12T00:32:59;101381.50;;;24.88;100.00
55490;BME280;44029;52.956;4.772;2023-09-12T00:35:25;101374.75;;;24.89;100.00
55490;BME280;44029;52.956;4.772;2023-09-12T00:37:50;101367.41;;;24.67;100.00
55490;BME280;44029;52.956;4.772;2023-09-12T00:40:15;101371.19;;;24.72;100.00
55490;BME280;44029;52.956;4.772;2023-09-12T00:42:41;101369.84;;;24.78;100.00
55490;BME280;44029;52.956;4.772;2023-09-12T00:45:06;101363.25;;;24.74;100.00
55490;BME280;44029;52.956;4.772;2023-09-12T00:47:32;101367.88;;;24.78;100.00
55490;BME280;44029;52.956;4.772;2023-09-12T00:49:59;101367.66;;;24.83;100.00
55490;BME280;44029;52.956;4.772;2023-09-12T00:52:26;101363.81;;;24.58;100.00
55490;BME280;44029;52.956;4.772;2023-09-12T00:54:54;101376.31;;;24.35;100.00
55490;BME280;44029;52.956;4.772;2023-09-12T00:57:20;101377.47;;;24.34;100.00
55490;BME280;44029;52.956;4.772;2023-09-12T00:59:47;101368.41;;;24.63;100.00
55490;BME280;44029;52.956;4.772;2023-09-12T01:02:13;101361.31;;;24.48;100.00
55490;BME280;44029;52.956;4.772;2023-09-12T01:04:39;101362.31;;;24.43;100.00
55490;BME280;44029;52.956;4.772;2023-09-12T01:07:05;101361.19;;;24.27;100.00
55490;BME280;44029;52.956;4.772;2023-09-12T01:09:31;101361.19;;;24.18;100.00
55490;BME280;44029;52.956;4.772;2023-09-12T01:11:57;101362.84;;;24.02;100.00
55490;BME280;44029;52.956;4.772;2023-09-12T01:14:22;101352.13;;;24.21;100.00
55490;BME280;44029;52.956;4.772;2023-09-12T01:16:48;101353.28;;;24.11;100.00
55490;BME280;44029;52.956;4.772;2023-09-12T01:19:14;101358.72;;;24.17;100.00
55490;BME280;44029;52.956;4.772;2023-09-12T01:29:59;101358.41;;;24.01;100.00
55490;BME280;44029;52.956;4.772;2023-09-12T01:32:26;101367.63;;;24.01;100.00
55490;BME280;44029;52.956;4.772;2023-09-12T01:34:51;101360.38;;;24.09;100.00
55490;BME280;44029;52.956;4.772;2023-09-12T01:37:17;101357.41;;;24.05;100.00
55490;BME280;44029;52.956;4.772;2023-09-12T01:39:42;101354.44;;;23.84;100.00
55490;BME280;44029;52.956;4.772;2023-09-12T01:42:20;101365.63;;;24.10;100.00
55490;BME280;44029;52.956;4.772;2023-09-12T01:44:49;101358.72;;;24.17;100.00
55490;BME280;44029;52.956;4.772;2023-09-12T01:47:17;101363.81;;;23.80;100.00
55490;BME280;44029;52.956;4.772;2023-09-12T01:49:47;101357.91;;;23.99;100.00
55490;BME280;44029;52.956;4.772;2023-09-12T01:52:13;101362.00;;;24.01;100.00
55490;BME280;44029;52.956;4.772;2023-09-12T01:54:41;101353.47;;;24.06;100.00
55490;BME280;44029;52.956;4.772;2023-09-12T01:57:08;101357.22;;;23.93;100.00
55490;BME280;44029;52.956;4.772;2023-09-12T01:59:34;101351.63;;;23.93;100.00
55490;BME280;44029;52.956;4.772;2023-09-12T02:01:59;101354.59;;;23.79;100.00
55490;BME280;44029;52.956;4.772;2023-09-12T02:04:25;101360.16;;;23.62;100.00
55490;BME280;44029;52.956;4.772;2023-09-12T02:06:50;101361.59;;;23.59;100.00
55490;BME280;44029;52.956;4.772;2023-09-12T02:09:15;101359.50;;;23.73;100.00
55490;BME280;44029;52.956;4.772;2023-09-12T02:11:41;101359.50;;;23.73;100.00
55490;BME280;44029;52.956;4.772;2023-09-12T02:14:06;101359.03;;;23.89;100.00
55490;BME280;44029;52.956;4.772;2023-09-12T02:16:31;101359.59;;;23.42;100.00
55490;BME280;44029;52.956;4.772;2023-09-12T02:18:57;101361.69;;;23.94;100.00
55490;BME280;44029;52.956;4.772;2023-09-12T02:21:22;101364.81;;;23.92;100.00
55490;BME280;44029;52.956;4.772;2023-09-12T02:23:47;101360.53;;;24.04;100.00
55490;BME280;44029;52.956;4.772;2023-09-12T02:26:13;101354.41;;;23.93;100.00
55490;BME280;44029;52.956;4.772;2023-09-12T02:28:38;101359.34;;;23.79;100.00
55490;BME280;44029;52.956;4.772;2023-09-12T02:31:09;101366.78;;;24.27;100.00
55490;BME280;44029;52.956;4.772;2023-09-12T02:33:35;101361.50;;;24.17;100.00
55490;BME280;44029;52.956;4.772;2023-09-12T02:36:00;101358.41;;;24.01;100.00
55490;BME280;44029;52.956;4.772;2023-09-12T02:38:25;101363.97;;;23.83;100.00
55490;BME280;44029;52.956;4.772;2023-09-12T02:40:51;101369.03;;;23.72;100.00
55490;BME280;44029;52.956;4.772;2023-09-12T02:43:16;101369.44;;;23.97;100.00
55490;BME280;44029;52.956;4.772;2023-09-12T02:45:42;101359.38;;;24.14;100.00
55490;BME280;44029;52.956;4.772;2023-09-12T02:48:07;101356.56;;;23.87;100.00
55490;BME280;44029;52.956;4.772;2023-09-12T02:50:33;101351.81;;;23.88;100.00
55490;BME280;44029;52.956;4.772;2023-09-12T02:52:58;101357.69;;;23.78;100.00
55490;BME280;44029;52.956;4.772;2023-09-12T02:55:23;101354.22;;;23.72;100.00
55490;BME280;44029;52.956;4.772;2023-09-12T02:57:49;101351.09;;;23.65;100.00
55490;BME280;44029;52.956;4.772;2023-09-12T03:00:14;101351.78;;;23.79;100.00
55490;BME280;44029;52.956;4.772;2023-09-12T03:02:39;101362.66;;;23.81;100.00
55490;BME280;44029;52.956;4.772;2023-09-12T03:05:05;101358.31;;;23.74;100.00
55490;BME280;44029;52.956;4.772;2023-09-12T03:07:31;101358.06;;;23.85;100.00
55490;BME280;44029;52.956;4.772;2023-09-12T03:09:56;101358.72;;;23.99;100.00
55490;BME280;44029;52.956;4.772;2023-09-12T03:12:21;101361.00;;;23.80;100.00
55490;BME280;44029;52.956;4.772;2023-09-12T03:14:47;101360.63;;;23.64;100.00
55490;BME280;44029;52.956;4.772;2023-09-12T03:17:12;101347.19;;;23.92;100.00
55490;BME280;44029;52.956;4.772;2023-09-12T03:19:37;101349.84;;;23.97;100.00
55490;BME280;44029;52.956;4.772;2023-09-12T03:22:03;101358.06;;;23.93;100.00
55490;BME280;44029;52.956;4.772;2023-09-12T03:24:29;101356.56;;;23.87;100.00
55490;BME280;44029;52.956;4.772;2023-09-12T03:26:55;101348.53;;;23.86;100.00
55490;BME280;44029;52.956;4.772;2023-09-12T03:29:20;101349.66;;;24.11;100.00
55490;BME280;44029;52.956;4.772;2023-09-12T03:31:45;101350.16;;;24.13;100.00
55490;BME280;44029;52.956;4.772;2023-09-12T03:34:10;101352.63;;;23.97;100.00
55490;BME280;44029;52.956;4.772;2023-09-12T03:36:36;101352.78;;;23.92;100.00
55490;BME280;44029;52.956;4.772;2023-09-12T03:39:01;101352.47;;;24.20;100.00
55490;BME280;44029;52.956;4.772;2023-09-12T03:41:28;101354.59;;;24.05;100.00
55490;BME280;44029;52.956;4.772;2023-09-12T03:43:53;101354.78;;;24.18;100.00
55490;BME280;44029;52.956;4.772;2023-09-12T03:46:19;101353.59;;;24.19;100.00
55490;BME280;44029;52.956;4.772;2023-09-12T03:48:45;101357.06;;;24.16;100.00
55490;BME280;44029;52.956;4.772;2023-09-12T03:51:11;101357.53;;;24.35;100.00
55490;BME280;44029;52.956;4.772;2023-09-12T03:53:36;101353.28;;;24.03;100.00
55490;BME280;44029;52.956;4.772;2023-09-12T03:56:02;101359.19;;;24.27;100.00
55490;BME280;44029;52.956;4.772;2023-09-12T03:58:27;101356.03;;;24.46;100.00
55490;BME280;44029;52.956;4.772;2023-09-12T04:00:52;101353.09;;;24.17;100.00
55490;BME280;44029;52.956;4.772;2023-09-12T04:03:18;101362.19;;;24.14;100.00
55490;BME280;44029;52.956;4.772;2023-09-12T04:05:43;101368.44;;;24.02;100.00
55490;BME280;44029;52.956;4.772;2023-09-12T04:08:10;101359.34;;;24.40;100.00
55490;BME280;44029;52.956;4.772;2023-09-12T04:10:36;101358.38;;;24.18;100.00
55490;BME280;44029;52.956;4.772;2023-09-12T04:13:02;101353.63;;;24.01;100.00
55490;BME280;44029;52.956;4.772;2023-09-12T04:15:27;101357.53;;;24.44;100.00
55490;BME280;44029;52.956;4.772;2023-09-12T04:17:52;101353.94;;;24.35;100.00
55490;BME280;44029;52.956;4.772;2023-09-12T04:20:18;101355.22;;;24.46;100.00
55490;BME280;44029;52.956;4.772;2023-09-12T04:22:44;101351.63;;;24.28;100.00
55490;BME280;44029;52.956;4.772;2023-09-12T04:25:09;101365.47;;;23.98;100.00
55490;BME280;44029;52.956;4.772;2023-09-12T04:27:35;101371.72;;;24.04;100.00
55490;BME280;44029;52.956;4.772;2023-09-12T04:30:00;101368.28;;;24.07;100.00
55490;BME280;44029;52.956;4.772;2023-09-12T04:32:26;101365.75;;;24.58;100.00
55490;BME280;44029;52.956;4.772;2023-09-12T04:34:51;101357.38;;;24.40;100.00
55490;BME280;44029;52.956;4.772;2023-09-12T04:37:17;101359.69;;;24.38;100.00
55490;BME280;44029;52.956;4.772;2023-09-12T04:39:42;101362.00;;;24.19;100.00
55490;BME280;44029;52.956;4.772;2023-09-12T04:42:08;101359.84;;;24.24;100.00
55490;BME280;44029;52.956;4.772;2023-09-12T04:44:36;101362.13;;;24.66;100.00
55490;BME280;44029;52.956;4.772;2023-09-12T04:47:02;101348.97;;;24.49;100.00
55490;BME280;44029;52.956;4.772;2023-09-12T04:49:28;101355.53;;;24.44;100.00
55490;BME280;44029;52.956;4.772;2023-09-12T04:51:53;101363.47;;;24.42;100.00
55490;BME280;44029;52.956;4.772;2023-09-12T04:54:18;101356.06;;;24.38;100.00
55490;BME280;44029;52.956;4.772;2023-09-12T04:56:44;101362.31;;;24.52;100.00
55490;BME280;44029;52.956;4.772;2023-09-12T04:59:09;101361.13;;;24.70;100.00
55490;BME280;44029;52.956;4.772;2023-09-12T05:01:34;101367.91;;;24.26;100.00
55490;BME280;44029;52.956;4.772;2023-09-12T05:04:00;101372.88;;;24.20;100.00
55490;BME280;44029;52.956;4.772;2023-09-12T05:06:25;101377.97;;;24.18;100.00
55490;BME280;44029;52.956;4.772;2023-09-12T05:08:50;101376.97;;;24.31;100.00
55490;BME280;44029;52.956;4.772;2023-09-12T05:11:15;101381.09;;;24.60;100.00
55490;BME280;44029;52.956;4.772;2023-09-12T05:13:41;101372.50;;;24.39;100.00
55490;BME280;44029;52.956;4.772;2023-09-12T05:16:06;101382.09;;;24.38;100.00
55490;BME280;44029;52.956;4.772;2023-09-12T05:18:32;101383.41;;;24.15;100.00
55490;BME280;44029;52.956;4.772;2023-09-12T05:20:57;101391.66;;;24.28;100.00
55490;BME280;44029;52.956;4.772;2023-09-12T05:23:23;101389.69;;;24.03;100.00
55490;BME280;44029;52.956;4.772;2023-09-12T05:25:48;101382.91;;;24.39;100.00
55490;BME280;44029;52.956;4.772;2023-09-12T05:28:13;101381.94;;;24.08;100.00
55490;BME280;44029;52.956;4.772;2023-09-12T05:30:42;101380.25;;;24.34;100.00
55490;BME280;44029;52.956;4.772;2023-09-12T05:33:07;101381.28;;;24.29;100.00
55490;BME280;44029;52.956;4.772;2023-09-12T05:35:32;101374.50;;;24.47;100.00
55490;BME280;44029;52.956;4.772;2023-09-12T05:37:58;101377.97;;;24.53;100.00
55490;BME280;44029;52.956;4.772;2023-09-12T05:40:23;101373.41;;;24.96;100.00
55490;BME280;44029;52.956;4.772;2023-09-12T05:42:48;101361.69;;;25.02;100.00
55490;BME280;44029;52.956;4.772;2023-09-12T05:45:14;101363.81;;;25.44;100.00
55490;BME280;44029;52.956;4.772;2023-09-12T05:47:39;101361.88;;;24.97;100.00
55490;BME280;44029;52.956;4.772;2023-09-12T05:50:05;101352.88;;;25.51;100.00
55490;BME280;44029;52.956;4.772;2023-09-12T05:52:32;101359.22;;;26.11;100.00
55490;BME280;44029;52.956;4.772;2023-09-12T05:54:58;101349.38;;;26.38;100.00
55490;BME280;44029;52.956;4.772;2023-09-12T05:57:23;101336.06;;;26.48;100.00
55490;BME280;44029;52.956;4.772;2023-09-12T05:59:49;101338.63;;;26.74;100.00
55490;BME280;44029;52.956;4.772;2023-09-12T06:02:14;101337.84;;;26.86;100.00
55490;BME280;44029;52.956;4.772;2023-09-12T06:04:40;101319.69;;;27.98;100.00
55490;BME280;44029;52.956;4.772;2023-09-12T06:07:05;101313.25;;;28.41;100.00
55490;BME280;44029;52.956;4.772;2023-09-12T06:09:31;101305.84;;;28.65;100.00
55490;BME280;44029;52.956;4.772;2023-09-12T06:11:56;101315.44;;;28.32;100.00
55490;BME280;44029;52.956;4.772;2023-09-12T06:14:22;101320.09;;;28.12;100.00
55490;BME280;44029;52.956;4.772;2023-09-12T06:16:47;101318.66;;;27.90;100.00
55490;BME280;44029;52.956;4.772;2023-09-12T06:19:13;101310.53;;;27.35;100.00
55490;BME280;44029;52.956;4.772;2023-09-12T06:21:40;101333.03;;;26.86;100.00
55490;BME280;44029;52.956;4.772;2023-09-12T06:26:34;101337.34;;;26.17;100.00
55490;BME280;44029;52.956;4.772;2023-09-12T06:29:00;101349.81;;;25.65;100.00
55490;BME280;44029;52.956;4.772;2023-09-12T06:31:25;101348.88;;;25.31;100.00
55490;BME280;44029;52.956;4.772;2023-09-12T06:33:50;101354.06;;;25.12;100.00
55490;BME280;44029;52.956;4.772;2023-09-12T06:36:15;101348.56;;;25.54;100.00
55490;BME280;44029;52.956;4.772;2023-09-12T06:38:41;101350.50;;;25.83;100.00
55490;BME280;44029;52.956;4.772;2023-09-12T06:41:06;101348.63;;;25.96;100.00
55490;BME280;44029;52.956;4.772;2023-09-12T06:43:32;101359.72;;;25.92;100.00
55490;BME280;44029;52.956;4.772;2023-09-12T06:45:57;101368.91;;;25.72;100.00
55490;BME280;44029;52.956;4.772;2023-09-12T06:48:22;101367.06;;;25.76;100.00
55490;BME280;44029;52.956;4.772;2023-09-12T06:50:48;101364.06;;;25.81;100.00
55490;BME280;44029;52.956;4.772;2023-09-12T06:53:13;101363.81;;;25.95;100.00
55490;BME280;44029;52.956;4.772;2023-09-12T06:55:38;101372.28;;;25.86;100.00
55490;BME280;44029;52.956;4.772;2023-09-12T06:58:04;101370.44;;;25.69;100.00
55490;BME280;44029;52.956;4.772;2023-09-12T07:00:29;101377.19;;;25.89;100.00
55490;BME280;44029;52.956;4.772;2023-09-12T07:02:54;101381.03;;;26.48;100.00
55490;BME280;44029;52.956;4.772;2023-09-12T07:05:20;101371.78;;;26.80;100.00
55490;BME280;44029;52.956;4.772;2023-09-12T07:07:46;101368.03;;;26.89;100.00
55490;BME280;44029;52.956;4.772;2023-09-12T07:10:11;101373.28;;;26.78;100.00
55490;BME280;44029;52.956;4.772;2023-09-12T07:12:37;101378.38;;;27.09;100.00
55490;BME280;44029;52.956;4.772;2023-09-12T07:15:02;101374.16;;;27.03;100.00
55490;BME280;44029;52.956;4.772;2023-09-12T07:17:28;101364.16;;;27.92;100.00
55490;BME280;44029;52.956;4.772;2023-09-12T07:19:54;101359.47;;;28.24;100.00
55490;BME280;44029;52.956;4.772;2023-09-12T07:22:19;101368.06;;;28.72;100.00
55490;BME280;44029;52.956;4.772;2023-09-12T07:24:44;101366.69;;;28.66;100.00
55490;BME280;44029;52.956;4.772;2023-09-12T07:27:10;101371.09;;;27.82;100.00
55490;BME280;44029;52.956;4.772;2023-09-12T07:29:35;101370.03;;;27.99;100.00
55490;BME280;44029;52.956;4.772;2023-09-12T07:32:00;101358.63;;;28.08;100.00
55490;BME280;44029;52.956;4.772;2023-09-12T07:34:26;101362.38;;;29.32;100.00
55490;BME280;44029;52.956;4.772;2023-09-12T07:36:51;101369.56;;;29.29;100.00
55490;BME280;44029;52.956;4.772;2023-09-12T07:39:17;101366.06;;;28.88;100.00
55490;BME280;44029;52.956;4.772;2023-09-12T07:41:43;101366.53;;;27.90;100.00
55490;BME280;44029;52.956;4.772;2023-09-12T07:44:08;101367.72;;;27.52;100.00
55490;BME280;44029;52.956;4.772;2023-09-12T07:46:39;101374.03;;;26.99;100.00
55490;BME280;44029;52.956;4.772;2023-09-12T07:49:04;101376.75;;;27.57;100.00
55490;BME280;44029;52.956;4.772;2023-09-12T07:51:30;101372.16;;;28.59;100.00
55490;BME280;44029;52.956;4.772;2023-09-12T07:53:55;101377.13;;;28.37;100.00
55490;BME280;44029;52.956;4.772;2023-09-12T07:56:21;101372.75;;;28.24;100.00
55490;BME280;44029;52.956;4.772;2023-09-12T07:58:48;101386.59;;;28.57;100.00
55490;BME280;44029;52.956;4.772;2023-09-12T08:01:14;101380.59;;;28.30;100.00
55490;BME280;44029;52.956;4.772;2023-09-12T08:03:41;101389.97;;;27.82;100.00
55490;BME280;44029;52.956;4.772;2023-09-12T08:06:07;101382.34;;;28.63;100.00
55490;BME280;44029;52.956;4.772;2023-09-12T08:08:32;101384.91;;;27.87;100.00
55490;BME280;44029;52.956;4.772;2023-09-12T08:10:58;101399.63;;;27.44;100.00
55490;BME280;44029;52.956;4.772;2023-09-12T08:13:27;101409.81;;;27.48;100.00
55490;BME280;44029;52.956;4.772;2023-09-12T08:15:54;101409.81;;;27.61;100.00
55490;BME280;44029;52.956;4.772;2023-09-12T08:18:19;101414.25;;;27.12;100.00
55490;BME280;44029;52.956;4.772;2023-09-12T08:20:44;101402.56;;;27.35;100.00
55490;BME280;44029;52.956;4.772;2023-09-12T08:23:10;101410.47;;;26.96;100.00
55490;BME280;44029;52.956;4.772;2023-09-12T08:25:36;101415.84;;;26.34;100.00
55490;BME280;44029;52.956;4.772;2023-09-12T08:28:01;101418.63;;;26.55;100.00
55490;BME280;44029;52.956;4.772;2023-09-12T08:30:26;101429.13;;;26.46;100.00
55490;BME280;44029;52.956;4.772;2023-09-12T08:32:54;101420.56;;;26.42;100.00
55490;BME280;44029;52.956;4.772;2023-09-12T08:35:20;101422.09;;;26.40;100.00
55490;BME280;44029;52.956;4.772;2023-09-12T08:37:45;101430.75;;;26.14;100.00
55490;BME280;44029;52.956;4.772;2023-09-12T08:40:11;101431.31;;;26.40;100.00
55490;BME280;44029;52.956;4.772;2023-09-12T08:42:42;101434.75;;;26.46;100.00
55490;BME280;44029;52.956;4.772;2023-09-12T08:45:14;101435.69;;;26.50;100.00
55490;BME280;44029;52.956;4.772;2023-09-12T08:47:45;101437.00;;;26.53;100.00
55490;BME280;44029;52.956;4.772;2023-09-12T08:50:15;101439.19;;;26.68;100.00
55490;BME280;44029;52.956;4.772;2023-09-12T08:52:42;101443.19;;;26.67;100.00
55490;BME280;44029;52.956;4.772;2023-09-12T08:55:08;101441.59;;;26.91;100.00
55490;BME280;44029;52.956;4.772;2023-09-12T08:57:36;101443.81;;;26.85;100.00
55490;BME280;44029;52.956;4.772;2023-09-12T09:00:04;101435.50;;;26.89;100.00
55490;BME280;44029;52.956;4.772;2023-09-12T09:02:32;101438.06;;;26.81;100.00
55490;BME280;44029;52.956;4.772;2023-09-12T09:04:59;101437.91;;;27.11;100.00
55490;BME280;44029;52.956;4.772;2023-09-12T09:07:27;101443.78;;;27.18;100.00
55490;BME280;44029;52.956;4.772;2023-09-12T09:09:53;101432.53;;;27.18;100.00
55490;BME280;44029;52.956;4.772;2023-09-12T09:12:21;101436.44;;;27.38;100.00
55490;BME280;44029;52.956;4.772;2023-09-12T09:14:46;101422.97;;;27.93;100.00
55490;BME280;44029;52.956;4.772;2023-09-12T09:17:12;101435.91;;;28.23;100.00
55490;BME280;44029;52.956;4.772;2023-09-12T09:19:44;101437.03;;;27.56;100.00
55490;BME280;44029;52.956;4.772;2023-09-12T09:22:11;101439.16;;;27.47;100.00
55490;BME280;44029;52.956;4.772;2023-09-12T09:24:36;101427.66;;;27.89;100.00
55490;BME280;44029;52.956;4.772;2023-09-12T09:27:01;101421.28;;;28.05;100.00
55490;BME280;44029;52.956;4.772;2023-09-12T09:29:27;101433.63;;;27.75;100.00
55490;BME280;44029;52.956;4.772;2023-09-12T09:31:59;101431.28;;;28.02;100.00
55490;BME280;44029;52.956;4.772;2023-09-12T09:34:25;101432.22;;;27.94;100.00
55490;BME280;44029;52.956;4.772;2023-09-12T09:36:54;101426.69;;;27.85;100.00
55490;BME280;44029;52.956;4.772;2023-09-12T09:39:24;101430.59;;;27.93;100.00
55490;BME280;44029;52.956;4.772;2023-09-12T09:41:52;101438.06;;;28.42;100.00
55490;BME280;44029;52.956;4.772;2023-09-12T09:44:18;101427.63;;;28.70;100.00
55490;BME280;44029;52.956;4.772;2023-09-12T09:46:46;101425.59;;;28.43;100.00
55490;BME280;44029;52.956;4.772;2023-09-12T09:49:16;101421.84;;;28.10;100.00
55490;BME280;44029;52.956;4.772;2023-09-12T09:51:43;101425.28;;;28.04;100.00
55490;BME280;44029;52.956;4.772;2023-09-12T09:54:12;101434.22;;;27.93;100.00
55490;BME280;44029;52.956;4.772;2023-09-12T09:56:54;101434.16;;;28.46;100.00
55490;BME280;44029;52.956;4.772;2023-09-12T09:59:27;101430.28;;;28.23;100.00
55490;BME280;44029;52.956;4.772;2023-09-12T10:01:58;101430.91;;;28.04;100.00
55490;BME280;44029;52.956;4.772;2023-09-12T10:04:27;101437.31;;;28.17;100.00
55490;BME280;44029;52.956;4.772;2023-09-12T10:06:53;101441.84;;;27.93;100.00
55490;BME280;44029;52.956;4.772;2023-09-12T10:09:22;101435.25;;;28.13;100.00
55490;BME280;44029;52.956;4.772;2023-09-12T10:11:48;101434.22;;;27.93;100.00
55490;BME280;44029;52.956;4.772;2023-09-12T10:14:18;101433.00;;;28.19;100.00
55490;BME280;44029;52.956;4.772;2023-09-12T10:16:47;101443.06;;;28.20;100.00
55490;BME280;44029;52.956;4.772;2023-09-12T10:24:15;101440.66;;;27.45;100.00
55490;BME280;44029;52.956;4.772;2023-09-12T10:26:44;101442.78;;;26.90;100.00
55490;BME280;44029;52.956;4.772;2023-09-12T10:29:14;101447.22;;;27.36;100.00
55490;BME280;44029;52.956;4.772;2023-09-12T10:31:42;101444.41;;;27.36;100.00
55490;BME280;44029;52.956;4.772;2023-09-12T10:34:08;101452.16;;;27.40;100.00
55490;BME280;44029;52.956;4.772;2023-09-12T10:36:40;101446.88;;;27.63;100.00
55490;BME280;44029;52.956;4.772;2023-09-12T10:39:06;101457.34;;;27.62;100.00
55490;BME280;44029;52.956;4.772;2023-09-12T10:41:32;101453.06;;;27.19;100.00
55490;BME280;44029;52.956;4.772;2023-09-12T10:44:01;101450.03;;;27.61;100.00
55490;BME280;44029;52.956;4.772;2023-09-12T10:46:28;101455.31;;;27.38;100.00
55490;BME280;44029;52.956;4.772;2023-09-12T10:48:53;101467.28;;;27.35;100.00
55490;BME280;44029;52.956;4.772;2023-09-12T10:51:19;101449.47;;;27.43;100.00
55490;BME280;44029;52.956;4.772;2023-09-12T10:53:49;101444.19;;;27.54;100.00
55490;BME280;44029;52.956;4.772;2023-09-12T11:01:29;101449.09;;;27.45;100.00
55490;BME280;44029;52.956;4.772;2023-09-12T11:03:55;101453.44;;;27.30;100.00
55490;BME280;44029;52.956;4.772;2023-09-12T11:06:30;101450.63;;;28.44;100.00
55490;BME280;44029;52.956;4.772;2023-09-12T11:11:47;101442.13;;;28.85;100.00
55490;BME280;44029;52.956;4.772;2023-09-12T11:14:13;101433.25;;;28.14;100.00
55490;BME280;44029;52.956;4.772;2023-09-12T11:16:38;101444.09;;;27.50;100.00
55490;BME280;44029;52.956;4.772;2023-09-12T11:19:19;101435.25;;;28.42;100.00
55490;BME280;44029;52.956;4.772;2023-09-12T11:21:50;101431.69;;;29.01;100.00
55490;BME280;44029;52.956;4.772;2023-09-12T11:24:17;101422.59;;;28.92;100.00
55490;BME280;44029;52.956;4.772;2023-09-12T11:27:00;101424.09;;;29.34;100.00
55490;BME280;44029;52.956;4.772;2023-09-12T11:29:35;101437.53;;;29.08;100.00
55490;BME280;44029;52.956;4.772;2023-09-12T11:32:02;101434.25;;;29.06;100.00
55490;BME280;44029;52.956;4.772;2023-09-12T11:34:30;101431.44;;;28.62;100.00
55490;BME280;44029;52.956;4.772;2023-09-12T11:37:00;101438.88;;;28.42;100.00
55490;BME280;44029;52.956;4.772;2023-09-12T11:39:29;101442.72;;;29.06;100.00
55490;BME280;44029;52.956;4.772;2023-09-12T11:41:58;101431.00;;;29.36;100.00
55490;BME280;44029;52.956;4.772;2023-09-12T11:44:24;101437.38;;;29.17;100.00
55490;BME280;44029;52.956;4.772;2023-09-12T11:46:50;101432.31;;;28.95;100.00
55490;BME280;44029;52.956;4.772;2023-09-12T11:49:17;101439.28;;;28.69;100.00
55490;BME280;44029;52.956;4.772;2023-09-12T11:51:51;101438.19;;;28.45;100.00
55490;BME280;44029;52.956;4.772;2023-09-12T11:54:24;101450.13;;;28.83;100.00
55490;BME280;44029;52.956;4.772;2023-09-12T11:56:50;101454.34;;;28.48;100.00
55490;BME280;44029;52.956;4.772;2023-09-12T11:59:22;101455.44;;;28.56;100.00
55490;BME280;44029;52.956;4.772;2023-09-12T12:01:48;101448.22;;;28.71;100.00
55490;BME280;44029;52.956;4.772;2023-09-12T12:04:13;101453.06;;;28.58;100.00
55490;BME280;44029;52.956;4.772;2023-09-12T12:06:39;101450.00;;;28.63;100.00
55490;BME280;44029;52.956;4.772;2023-09-12T12:09:04;101443.31;;;28.84;100.00
55490;BME280;44029;52.956;4.772;2023-09-12T12:11:30;101447.06;;;29.04;100.00
55490;BME280;44029;52.956;4.772;2023-09-12T12:13:56;101443.16;;;29.08;100.00
55490;BME280;44029;52.956;4.772;2023-09-12T12:16:22;101452.03;;;28.50;100.00
55490;BME280;44029;52.956;4.772;2023-09-12T12:18:47;101452.81;;;28.63;100.00
55490;BME280;44029;52.956;4.772;2023-09-12T12:21:13;101448.59;;;28.57;100.00
55490;BME280;44029;52.956;4.772;2023-09-12T12:23:39;101453.28;;;28.65;100.00
55490;BME280;44029;52.956;4.772;2023-09-12T12:26:08;101452.84;;;28.51;100.00
55490;BME280;44029;52.956;4.772;2023-09-12T12:28:37;101451.59;;;28.77;100.00
55490;BME280;44029;52.956;4.772;2023-09-12T12:31:03;101451.78;;;29.00;100.00
55490;BME280;44029;52.956;4.772;2023-09-12T12:33:29;101447.91;;;28.76;100.00
55490;BME280;44029;52.956;4.772;2023-09-12T12:36:02;101441.75;;;29.15;100.00
55490;BME280;44029;52.956;4.772;2023-09-12T12:38:34;101442.94;;;29.14;100.00
55490;BME280;44029;52.956;4.772;2023-09-12T12:41:00;101436.88;;;28.99;100.00
55490;BME280;44029;52.956;4.772;2023-09-12T12:43:26;101432.69;;;28.93;100.00
55490;BME280;44029;52.956;4.772;2023-09-12T12:45:56;101429.25;;;29.32;100.00
55490;BME280;44029;52.956;4.772;2023-09-12T12:48:32;101428.63;;;29.54;100.00
55490;BME280;44029;52.956;4.772;2023-09-12T12:50:58;101432.16;;;29.03;100.00
55490;BME280;44029;52.956;4.772;2023-09-12T12:53:40;101432.44;;;29.62;100.00
55490;BME280;44029;52.956;4.772;2023-09-12T12:56:06;101429.09;;;29.40;100.00
55490;BME280;44029;52.956;4.772;2023-09-12T12:58:31;101426.63;;;29.55;100.00
55490;BME280;44029;52.956;4.772;2023-09-12T13:00:57;101434.94;;;29.16;100.00